createdAt,value
2022-09-13T00:01:45.699Z,15.70
2022-09-13T00:04:12.532Z,15.70
2022-09-13T00:06:39.255Z,15.70
2022-09-13T00:09:06.089Z,15.70
2022-09-13T00:11:32.818Z,15.70
2022-09-13T00:13:59.672Z,15.70
2022-09-13T00:16:28.336Z,15.70
2022-09-13T00:18:56.002Z,15.60
2022-09-13T00:21:24.447Z,15.70
2022-09-13T00:23:53.588Z,15.60
2022-09-13T00:26:24.281Z,15.60
2022-09-13T00:28:52.767Z,15.60
2022-09-13T00:31:20.949Z,15.60
2022-09-13T00:33:47.758Z,15.60
2022-09-13T00:36:15.398Z,15.50
2022-09-13T00:38:43.571Z,15.50
2022-09-13T00:41:16.335Z,15.50
2022-09-13T00:43:55.532Z,15.40
2022-09-13T00:46:49.175Z,15.50
2022-09-13T00:49:36.679Z,15.40
2022-09-13T00:52:08.458Z,15.40
2022-09-13T00:54:44.436Z,15.30
2022-09-13T00:57:12.630Z,15.30
2022-09-13T00:59:52.803Z,15.30
2022-09-13T01:02:20.537Z,15.30
2022-09-13T01:04:47.690Z,15.20
2022-09-13T01:07:17.482Z,15.20
2022-09-13T01:09:48.554Z,15.20
2022-09-13T01:12:22.311Z,15.20
2022-09-13T01:14:50.213Z,15.20
2022-09-13T01:17:17.008Z,15.10
2022-09-13T01:19:43.844Z,15.10
2022-09-13T01:22:48.629Z,15.10
2022-09-13T01:25:24.387Z,15.10
2022-09-13T01:28:02.143Z,15.10
2022-09-13T01:30:49.553Z,15.10
2022-09-13T01:33:50.894Z,15.10
2022-09-13T01:36:53.570Z,15.10
2022-09-13T01:39:49.543Z,15.10
2022-09-13T01:42:28.455Z,15.00
2022-09-13T01:45:06.680Z,15.00
2022-09-13T01:47:52.267Z,15.00
2022-09-13T01:50:26.701Z,15.00
2022-09-13T01:53:01.731Z,14.90
2022-09-13T01:55:40.319Z,14.90
2022-09-13T01:58:25.875Z,14.90
2022-09-13T02:01:07.217Z,14.90
2022-09-13T02:03:40.247Z,14.90
2022-09-13T02:06:15.673Z,14.90
2022-09-13T02:08:54.182Z,14.80
2022-09-13T02:11:23.002Z,14.80
2022-09-13T02:13:54.680Z,14.80
2022-09-13T02:16:47.307Z,14.80
2022-09-13T02:19:39.474Z,14.80
2022-09-13T02:22:09.020Z,14.80
2022-09-13T02:24:46.104Z,14.80
2022-09-13T02:27:19.088Z,14.80
2022-09-13T02:29:49.131Z,14.70
2022-09-13T02:32:24.850Z,14.70
2022-09-13T02:34:56.792Z,14.70
2022-09-13T02:37:26.147Z,14.70
2022-09-13T02:40:02.613Z,14.60
2022-09-13T02:42:32.322Z,14.60
2022-09-13T02:45:00.409Z,14.60
2022-09-13T02:47:33.351Z,14.60
2022-09-13T02:50:09.229Z,14.60
2022-09-13T02:52:47.143Z,14.60
2022-09-13T02:55:28.593Z,14.60
2022-09-13T02:58:05.695Z,14.50
2022-09-13T03:00:32.743Z,14.50
2022-09-13T03:03:04.713Z,14.50
2022-09-13T03:05:31.794Z,14.50
2022-09-13T03:08:00.536Z,14.40
2022-09-13T03:10:35.750Z,14.40
2022-09-13T03:13:23.962Z,14.40
2022-09-13T03:15:59.636Z,14.30
2022-09-13T03:18:56.542Z,14.30
2022-09-13T03:22:05.193Z,14.30
2022-09-13T03:24:38.074Z,14.30
2022-09-13T03:27:37.327Z,14.30
2022-09-13T03:30:05.515Z,14.20
2022-09-13T03:32:38.084Z,14.20
2022-09-13T03:35:10.384Z,14.20
2022-09-13T03:38:16.427Z,14.20
2022-09-13T03:40:52.569Z,14.20
2022-09-13T03:43:46.745Z,14.20
2022-09-13T03:46:23.086Z,14.20
2022-09-13T03:48:51.486Z,14.20
2022-09-13T03:51:18.758Z,14.20
2022-09-13T03:53:56.636Z,14.20
2022-09-13T03:56:23.661Z,14.20
2022-09-13T03:58:50.681Z,14.20
2022-09-13T04:01:22.514Z,14.20
2022-09-13T04:03:53.313Z,14.10
2022-09-13T04:06:22.682Z,14.10
2022-09-13T04:08:49.596Z,14.10
2022-09-13T04:11:16.758Z,14.10
2022-09-13T04:13:43.550Z,14.10
2022-09-13T04:16:10.326Z,14.10
2022-09-13T04:18:37.108Z,14.10
2022-09-13T04:21:04.632Z,14.10
2022-09-13T04:23:31.425Z,14.00
2022-09-13T04:26:03.390Z,14.10
2022-09-13T04:28:30.881Z,14.10
2022-09-13T04:30:57.735Z,14.10
2022-09-13T04:33:24.711Z,14.10
2022-09-13T04:35:59.699Z,14.10
2022-09-13T04:38:27.552Z,14.10
2022-09-13T04:40:58.039Z,14.10
2022-09-13T04:43:24.917Z,14.10
2022-09-13T04:45:52.002Z,14.10
2022-09-13T04:48:18.762Z,14.10
2022-09-13T04:50:45.695Z,14.10
2022-09-13T04:53:13.697Z,14.10
2022-09-13T04:55:40.772Z,14.10
2022-09-13T04:58:07.590Z,14.10
2022-09-13T05:00:34.423Z,14.10
2022-09-13T05:03:01.658Z,14.10
2022-09-13T05:05:29.291Z,14.20
2022-09-13T05:07:56.206Z,14.10
2022-09-13T05:10:23.135Z,14.10
2022-09-13T05:12:49.850Z,14.10
2022-09-13T05:15:17.038Z,14.10
2022-09-13T05:17:43.758Z,14.10
2022-09-13T05:20:10.943Z,14.10
2022-09-13T05:22:38.114Z,14.20
2022-09-13T05:25:05.279Z,14.10
2022-09-13T05:27:32.050Z,14.10
2022-09-13T05:29:58.817Z,14.10
2022-09-13T05:32:25.575Z,14.10
2022-09-13T05:34:52.313Z,14.10
2022-09-13T05:37:19.069Z,14.20
2022-09-13T05:40:09.760Z,14.10
2022-09-13T05:42:32.471Z,14.20
2022-09-13T05:44:59.249Z,14.20
2022-09-13T05:47:25.916Z,14.20
2022-09-13T05:50:09.967Z,14.20
2022-09-13T05:52:37.979Z,14.20
2022-09-13T05:55:05.072Z,14.30
2022-09-13T05:57:31.937Z,14.30
2022-09-13T05:59:58.696Z,14.30
2022-09-13T06:02:25.491Z,14.30
2022-09-13T06:04:52.326Z,14.40
2022-09-13T06:07:19.061Z,14.40
2022-09-13T06:09:45.785Z,14.40
2022-09-13T06:12:12.509Z,14.50
2022-09-13T06:14:39.467Z,14.50
2022-09-13T06:17:06.191Z,14.50
2022-09-13T06:19:32.952Z,14.60
2022-09-13T06:21:59.721Z,14.60
2022-09-13T06:24:26.438Z,14.60
2022-09-13T06:26:53.980Z,14.70
2022-09-13T06:29:20.726Z,14.70
2022-09-13T06:31:47.475Z,14.70
2022-09-13T06:34:15.631Z,14.70
2022-09-13T06:36:42.890Z,14.70
2022-09-13T06:39:09.703Z,14.70
2022-09-13T06:41:37.468Z,14.70
2022-09-13T06:44:05.124Z,14.70
2022-09-13T06:46:33.722Z,14.80
2022-09-13T06:49:03.396Z,14.80
2022-09-13T06:51:30.986Z,14.80
2022-09-13T06:53:58.251Z,14.80
2022-09-13T06:56:36.083Z,14.90
2022-09-13T06:59:05.847Z,15.00
2022-09-13T07:01:41.650Z,15.00
2022-09-13T07:04:13.988Z,15.10
2022-09-13T07:06:42.976Z,15.20
2022-09-13T07:09:13.666Z,15.20
2022-09-13T07:11:41.973Z,15.30
2022-09-13T07:14:12.461Z,15.30
2022-09-13T07:16:39.275Z,15.40
2022-09-13T07:19:08.353Z,15.50
2022-09-13T07:21:35.853Z,15.60
2022-09-13T07:24:04.274Z,15.60
2022-09-13T07:26:32.367Z,15.70
2022-09-13T07:29:01.156Z,15.80
2022-09-13T07:31:36.875Z,15.90
2022-09-13T07:34:11.845Z,16.00
2022-09-13T07:36:38.632Z,16.10
2022-09-13T07:39:06.158Z,16.10
2022-09-13T07:41:34.727Z,16.20
2022-09-13T07:44:02.137Z,16.20
2022-09-13T07:46:34.277Z,16.30
2022-09-13T07:49:02.242Z,16.40
2022-09-13T07:51:34.535Z,16.50
2022-09-13T07:54:03.605Z,16.60
2022-09-13T07:56:35.726Z,16.70
2022-09-13T07:59:04.740Z,16.80
2022-09-13T08:01:45.667Z,16.90
2022-09-13T08:04:17.101Z,17.10
2022-09-13T08:06:44.488Z,17.30
2022-09-13T08:09:11.839Z,17.50
2022-09-13T08:11:39.558Z,17.70
2022-09-13T08:14:07.747Z,17.80
2022-09-13T08:16:34.490Z,17.90
2022-09-13T08:19:03.671Z,18.00
2022-09-13T08:21:38.499Z,18.10
2022-09-13T08:24:07.189Z,18.20
2022-09-13T08:26:35.822Z,18.20
2022-09-13T08:29:05.200Z,18.20
2022-09-13T08:31:32.325Z,18.30
2022-09-13T08:33:59.312Z,18.40
2022-09-13T08:36:28.186Z,18.50
2022-09-13T08:39:00.953Z,18.60
2022-09-13T08:41:40.071Z,18.70
2022-09-13T08:44:34.127Z,18.70
2022-09-13T08:47:25.093Z,18.80
2022-09-13T08:50:04.282Z,18.90
2022-09-13T08:52:36.604Z,19.00
2022-09-13T08:55:20.166Z,19.00
2022-09-13T08:58:22.870Z,19.00
2022-09-13T09:00:59.062Z,19.10
2022-09-13T09:03:46.673Z,19.20
2022-09-13T09:06:16.450Z,19.20
2022-09-13T09:08:55.449Z,19.20
2022-09-13T09:11:59.419Z,19.20
2022-09-13T09:14:31.264Z,19.30
2022-09-13T09:17:04.523Z,19.30
2022-09-13T09:19:53.411Z,19.30
2022-09-13T09:22:23.298Z,19.40
2022-09-13T09:24:58.104Z,19.40
2022-09-13T09:27:25.845Z,19.40
2022-09-13T09:29:55.115Z,19.50
2022-09-13T09:32:36.998Z,19.50
2022-09-13T09:35:16.118Z,19.70
2022-09-13T09:37:46.205Z,19.80
2022-09-13T09:40:14.342Z,19.90
2022-09-13T09:43:01.312Z,20.10
2022-09-13T09:45:46.068Z,20.20
2022-09-13T09:48:46.054Z,20.30
2022-09-13T09:51:36.689Z,20.30
2022-09-13T09:54:07.802Z,20.40
2022-09-13T09:57:19.150Z,20.50
2022-09-13T09:59:47.934Z,20.60
2022-09-13T10:02:25.067Z,20.70
2022-09-13T10:05:07.946Z,20.70
2022-09-13T10:08:04.186Z,20.80
2022-09-13T10:11:05.139Z,20.80
2022-09-13T10:14:30.774Z,20.90
2022-09-13T10:17:48.671Z,20.90
2022-09-13T10:24:00.091Z,21.00
2022-09-13T10:26:34.459Z,21.00
2022-09-13T10:29:18.190Z,21.10
2022-09-13T10:31:54.022Z,21.10
2022-09-13T10:34:36.129Z,21.10
2022-09-13T10:37:34.721Z,21.10
2022-09-13T10:41:06.466Z,21.00
2022-09-13T10:43:43.088Z,21.00
2022-09-13T10:46:22.467Z,21.00
2022-09-13T10:49:02.035Z,21.10
2022-09-13T10:51:41.911Z,21.20
2022-09-13T10:54:27.433Z,21.40
2022-09-13T10:56:54.357Z,21.50
2022-09-13T10:59:29.193Z,21.70
2022-09-13T11:07:01.515Z,21.80
2022-09-13T11:10:05.893Z,21.90
2022-09-13T11:12:59.144Z,22.00
2022-09-13T11:16:18.368Z,22.00
2022-09-13T11:19:18.817Z,22.10
2022-09-13T11:22:53.329Z,22.20
2022-09-13T11:25:36.370Z,22.20
2022-09-13T11:28:40.566Z,22.30
2022-09-13T11:31:26.048Z,22.30
2022-09-13T11:34:07.181Z,22.40
2022-09-13T11:37:28.695Z,22.40
2022-09-13T11:44:36.560Z,22.60
2022-09-13T11:48:24.989Z,22.70
2022-09-13T11:55:07.180Z,23.10
2022-09-13T11:58:29.176Z,23.20
2022-09-13T12:01:19.371Z,23.10
2022-09-13T12:04:33.791Z,23.20
2022-09-13T12:07:12.039Z,23.10
2022-09-13T12:10:31.881Z,23.30
2022-09-13T12:13:04.991Z,23.40
2022-09-13T12:22:48.112Z,23.40
2022-09-13T12:26:06.064Z,23.40
2022-09-13T12:29:28.720Z,23.60
2022-09-13T12:33:13.373Z,23.70
2022-09-13T12:36:10.955Z,24.00
2022-09-13T12:42:04.459Z,24.20
2022-09-13T12:45:26.231Z,24.30
2022-09-13T12:54:38.210Z,24.20
2022-09-13T13:01:33.915Z,24.50
2022-09-13T13:04:18.266Z,24.50
2022-09-13T13:07:23.411Z,24.40
2022-09-13T13:10:04.035Z,24.30
2022-09-13T13:12:42.132Z,24.20
2022-09-13T13:15:20.656Z,24.20
2022-09-13T13:18:25.468Z,24.20
2022-09-13T13:21:27.491Z,24.20
2022-09-13T13:24:21.154Z,24.10
2022-09-13T13:27:00.863Z,24.20
2022-09-13T13:29:36.324Z,24.20
2022-09-13T13:32:12.939Z,24.10
2022-09-13T13:34:44.044Z,24.10
2022-09-13T13:37:11.967Z,24.20
2022-09-13T13:44:32.869Z,24.30
2022-09-13T13:47:14.732Z,24.30
2022-09-13T13:49:41.573Z,24.30
2022-09-13T13:52:17.945Z,24.30
2022-09-13T13:55:37.617Z,24.30
2022-09-13T13:58:46.504Z,24.30
2022-09-13T14:05:46.319Z,24.60
2022-09-13T14:09:06.360Z,24.70
2022-09-13T14:12:23.309Z,24.80
2022-09-13T14:15:24.926Z,25.00
2022-09-13T14:18:26.186Z,25.20
2022-09-13T14:21:03.828Z,25.30
2022-09-13T14:23:46.610Z,25.40
2022-09-13T14:26:13.784Z,25.60
2022-09-13T14:28:57.203Z,25.70
2022-09-13T14:31:52.630Z,25.80
2022-09-13T14:45:05.517Z,26.20
2022-09-13T14:48:02.038Z,26.20
2022-09-13T14:56:45.452Z,26.10
2022-09-13T14:58:34.422Z,26.00
2022-09-13T15:01:52.275Z,26.00
2022-09-13T15:04:34.477Z,25.80
2022-09-13T15:07:17.997Z,25.80
2022-09-13T15:10:13.345Z,25.80
2022-09-13T15:13:13.667Z,25.70
2022-09-13T15:15:53.526Z,25.70
2022-09-13T15:18:20.309Z,25.70
2022-09-13T15:21:19.468Z,25.70
2022-09-13T15:29:37.573Z,25.60
2022-09-13T15:32:06.803Z,25.60
2022-09-13T15:37:45.762Z,25.60
2022-09-13T15:40:45.330Z,25.60
2022-09-13T15:44:04.048Z,25.60
2022-09-13T15:46:52.414Z,25.50
2022-09-13T15:49:48.737Z,25.50
2022-09-13T15:52:49.368Z,25.40
2022-09-13T16:05:49.158Z,25.20
2022-09-13T16:08:15.942Z,25.10
2022-09-13T16:10:44.068Z,25.00
2022-09-13T16:13:50.955Z,24.90
2022-09-13T16:16:18.165Z,24.90
2022-09-13T16:18:55.581Z,24.80
2022-09-13T16:21:45.729Z,24.70
2022-09-13T16:24:15.824Z,24.70
2022-09-13T16:26:58.257Z,24.60
2022-09-13T16:29:25.226Z,24.60
2022-09-13T16:32:10.300Z,24.50
2022-09-13T16:35:03.019Z,24.50
2022-09-13T16:37:32.538Z,24.40
2022-09-13T16:40:02.861Z,24.40
2022-09-13T16:42:29.836Z,24.30
2022-09-13T16:45:10.172Z,24.30
2022-09-13T16:47:39.017Z,24.30
2022-09-13T16:51:05.420Z,24.20
2022-09-13T17:09:02.637Z,23.80
2022-09-13T17:11:57.279Z,23.80
2022-09-13T17:19:40.864Z,23.60
2022-09-13T17:22:10.007Z,23.50
2022-09-13T17:24:41.716Z,23.50
2022-09-13T17:27:32.033Z,23.40
2022-09-13T17:30:10.984Z,23.30
2022-09-13T17:32:46.609Z,23.20
2022-09-13T17:35:14.152Z,23.20
2022-09-13T17:38:26.646Z,23.10
2022-09-13T17:41:10.006Z,23.00
2022-09-13T17:43:53.083Z,23.00
2022-09-13T17:46:30.889Z,22.90
2022-09-13T17:49:11.170Z,22.80
2022-09-13T17:51:40.464Z,22.70
2022-09-13T17:54:19.850Z,22.70
2022-09-13T17:59:43.551Z,22.60
2022-09-13T18:02:19.268Z,22.50
2022-09-13T18:05:07.050Z,22.40
2022-09-13T18:08:19.806Z,22.30
2022-09-13T18:11:12.208Z,22.30
2022-09-13T18:13:44.186Z,22.20
2022-09-13T18:16:27.252Z,22.10
2022-09-13T18:19:39.201Z,22.10
2022-09-13T18:23:22.754Z,22.00
2022-09-13T18:26:11.213Z,22.00
2022-09-13T18:29:41.499Z,21.90
2022-09-13T18:32:16.353Z,21.80
2022-09-13T18:35:12.576Z,21.80
2022-09-13T18:38:18.015Z,21.70
2022-09-13T18:41:20.709Z,21.70
2022-09-13T18:44:22.232Z,21.70
2022-09-13T18:47:02.940Z,21.70
2022-09-13T18:49:42.055Z,21.60
2022-09-13T18:52:18.107Z,21.60
2022-09-13T18:54:45.152Z,21.60
2022-09-13T18:57:21.030Z,21.60
2022-09-13T19:00:43.429Z,21.60
2022-09-13T19:09:40.957Z,21.50
2022-09-13T19:12:10.872Z,21.50
2022-09-13T19:14:48.774Z,21.50
2022-09-13T19:17:16.545Z,21.40
2022-09-13T19:26:32.815Z,21.40
2022-09-13T19:29:21.206Z,21.40
2022-09-13T19:31:58.187Z,21.40
2022-09-13T19:34:33.733Z,21.40
2022-09-13T19:37:00.694Z,21.40
2022-09-13T19:39:56.965Z,21.40
2022-09-13T19:50:00.173Z,21.40
2022-09-13T19:52:27.096Z,21.40
2022-09-13T19:55:41.774Z,21.30
2022-09-13T19:58:25.015Z,21.30
2022-09-13T20:01:08.917Z,21.30
2022-09-13T20:03:46.678Z,21.30
2022-09-13T20:06:35.211Z,21.30
2022-09-13T20:09:15.708Z,21.30
2022-09-13T20:11:53.090Z,21.30
2022-09-13T20:15:55.653Z,21.30
2022-09-13T20:18:31.831Z,21.30
2022-09-13T20:21:11.858Z,21.20
2022-09-13T20:24:00.730Z,21.20
2022-09-13T20:26:36.643Z,21.20
2022-09-13T20:29:45.438Z,21.20
2022-09-13T20:32:46.179Z,21.10
2022-09-13T20:35:41.949Z,21.10
2022-09-13T20:38:08.803Z,21.10
2022-09-13T20:41:04.851Z,21.10
2022-09-13T20:43:50.570Z,21.00
2022-09-13T20:47:21.522Z,21.00
2022-09-13T20:50:11.237Z,21.00
2022-09-13T20:56:18.602Z,21.00
2022-09-13T20:58:57.645Z,21.00
2022-09-13T21:01:33.776Z,21.00
2022-09-13T21:04:15.217Z,21.00
2022-09-13T21:10:50.062Z,21.00
2022-09-13T21:13:36.659Z,21.00
2022-09-13T21:16:23.130Z,21.00
2022-09-13T21:19:35.065Z,21.00
2022-09-13T21:29:09.360Z,20.90
2022-09-13T21:31:36.527Z,20.90
2022-09-13T21:34:06.860Z,20.90
2022-09-13T21:36:35.456Z,21.00
2022-09-13T21:39:02.805Z,21.00
2022-09-13T21:41:30.080Z,20.90
2022-09-13T21:43:56.930Z,20.90
2022-09-13T21:46:26.202Z,20.90
2022-09-13T21:48:56.389Z,20.90
2022-09-13T21:51:26.470Z,20.90
2022-09-13T21:53:58.735Z,20.90
2022-09-13T21:56:28.580Z,20.90
2022-09-13T21:59:01.556Z,20.90
2022-09-13T22:01:31.087Z,20.90
2022-09-13T22:03:58.575Z,20.90
2022-09-13T22:06:28.233Z,20.90
2022-09-13T22:09:00.432Z,20.90
2022-09-13T22:11:30.396Z,20.90
2022-09-13T22:13:58.315Z,20.80
2022-09-13T22:16:37.196Z,20.80
2022-09-13T22:19:10.649Z,20.80
2022-09-13T22:21:40.684Z,20.80
2022-09-13T22:24:08.597Z,20.80
2022-09-13T22:26:38.300Z,20.80
2022-09-13T22:29:05.231Z,20.80
2022-09-13T22:31:34.684Z,20.80
2022-09-13T22:34:02.165Z,20.80
2022-09-13T22:36:29.552Z,20.70
2022-09-13T22:38:56.652Z,20.70
2022-09-13T22:41:29.280Z,20.70
2022-09-13T22:43:57.813Z,20.70
2022-09-13T22:46:33.783Z,20.70
2022-09-13T22:49:01.184Z,20.70
2022-09-13T22:51:28.004Z,20.70
2022-09-13T22:53:55.869Z,20.60
2022-09-13T22:56:26.563Z,20.60
2022-09-13T22:59:01.995Z,20.60
2022-09-13T23:01:30.240Z,20.60
2022-09-13T23:03:57.453Z,20.60
2022-09-13T23:06:25.896Z,20.50
2022-09-13T23:08:55.104Z,20.50
2022-09-13T23:11:27.487Z,20.50
2022-09-13T23:13:55.474Z,20.50
2022-09-13T23:16:32.033Z,20.50
2022-09-13T23:19:00.111Z,20.50
2022-09-13T23:21:33.425Z,20.40
2022-09-13T23:24:01.493Z,20.40
2022-09-13T23:26:29.214Z,20.40
2022-09-13T23:29:00.822Z,20.40
2022-09-13T23:31:30.380Z,20.40
2022-09-13T23:34:01.583Z,20.40
2022-09-13T23:36:30.980Z,20.40
2022-09-13T23:38:59.187Z,20.40
2022-09-13T23:41:26.366Z,20.40
2022-09-13T23:43:54.144Z,20.40
2022-09-13T23:46:21.207Z,20.40
2022-09-13T23:48:48.225Z,20.40
2022-09-13T23:51:18.213Z,20.40
2022-09-13T23:53:45.061Z,20.40
2022-09-13T23:56:12.150Z,20.40
2022-09-13T23:58:39.245Z,20.40
